sensor_id;sensor_type;location;lat;lon;timestamp;pressure;altitude;pressure_sealevel;temperature;humidity
10060;BME280;5069;49.306;8.636;2023-06-14T00:01:21;99953.50;;;22.09;35.76
10060;BME280;5069;49.306;8.636;2023-06-14T00:04:23;99957.31;;;22.16;35.57
10060;BME280;5069;49.306;8.636;2023-06-14T00:07:36;99955.34;;;22.09;35.72
10060;BME280;5069;49.306;8.636;2023-06-14T00:10:40;99951.09;;;22.06;35.72
10060;BME280;5069;49.306;8.636;2023-06-14T00:13:43;99948.53;;;22.05;35.82
10060;BME280;5069;49.306;8.636;2023-06-14T00:16:44;99943.16;;;22.05;35.90
10060;BME280;5069;49.306;8.636;2023-06-14T00:19:46;99940.63;;;22.03;36.09
10060;BME280;5069;49.306;8.636;2023-06-14T00:22:48;99942.28;;;21.95;36.00
10060;BME280;5069;49.306;8.636;2023-06-14T00:25:49;99942.72;;;22.00;35.99
10060;BME280;5069;49.306;8.636;2023-06-14T00:28:52;99947.88;;;21.92;36.10
10060;BME280;5069;49.306;8.636;2023-06-14T00:31:53;99942.94;;;21.87;36.42
10060;BME280;5069;49.306;8.636;2023-06-14T00:34:55;99938.25;;;21.89;36.35
10060;BME280;5069;49.306;8.636;2023-06-14T00:37:56;99935.56;;;21.89;36.32
10060;BME280;5069;49.306;8.636;2023-06-14T00:40:58;99933.75;;;21.90;36.27
10060;BME280;5069;49.306;8.636;2023-06-14T00:43:59;99930.63;;;21.84;36.44
10060;BME280;5069;49.306;8.636;2023-06-14T00:47:01;99926.50;;;21.80;36.54
10060;BME280;5069;49.306;8.636;2023-06-14T00:50:06;99928.47;;;21.78;36.60
10060;BME280;5069;49.306;8.636;2023-06-14T00:53:08;99932.31;;;21.85;36.44
10060;BME280;5069;49.306;8.636;2023-06-14T00:56:09;99928.47;;;21.78;36.71
10060;BME280;5069;49.306;8.636;2023-06-14T00:59:14;99931.69;;;21.72;36.81
10060;BME280;5069;49.306;8.636;2023-06-14T01:02:17;99926.31;;;21.72;36.60
10060;BME280;5069;49.306;8.636;2023-06-14T01:05:21;99927.47;;;21.70;36.81
10060;BME280;5069;49.306;8.636;2023-06-14T01:08:31;99920.63;;;21.66;36.90
10060;BME280;5069;49.306;8.636;2023-06-14T01:12:11;99924.44;;;21.63;36.79
10060;BME280;5069;49.306;8.636;2023-06-14T01:15:15;99927.38;;;21.60;37.10
10060;BME280;5069;49.306;8.636;2023-06-14T01:18:17;99927.66;;;21.57;37.03
10060;BME280;5069;49.306;8.636;2023-06-14T01:21:20;99930.16;;;21.49;37.22
10060;BME280;5069;49.306;8.636;2023-06-14T01:24:23;99932.38;;;21.44;37.34
10060;BME280;5069;49.306;8.636;2023-06-14T01:27:27;99930.09;;;21.39;37.47
10060;BME280;5069;49.306;8.636;2023-06-14T01:30:33;99932.16;;;21.36;37.60
10060;BME280;5069;49.306;8.636;2023-06-14T01:33:36;99932.16;;;21.36;37.71
10060;BME280;5069;49.306;8.636;2023-06-14T01:36:40;99929.75;;;21.33;37.67
10060;BME280;5069;49.306;8.636;2023-06-14T01:39:43;99926.88;;;21.25;37.94
10060;BME280;5069;49.306;8.636;2023-06-14T01:42:46;99933.38;;;21.22;37.88
10060;BME280;5069;49.306;8.636;2023-06-14T01:45:48;99932.78;;;21.19;37.95
10060;BME280;5069;49.306;8.636;2023-06-14T01:48:52;99935.91;;;21.24;37.90
10060;BME280;5069;49.306;8.636;2023-06-14T01:51:54;99940.09;;;21.17;37.80
10060;BME280;5069;49.306;8.636;2023-06-14T01:54:56;99934.72;;;21.17;37.87
10060;BME280;5069;49.306;8.636;2023-06-14T01:57:57;99925.59;;;21.08;37.84
10060;BME280;5069;49.306;8.636;2023-06-14T02:01:00;99923.63;;;21.10;37.83
10060;BME280;5069;49.306;8.636;2023-06-14T02:04:02;99931.81;;;21.09;38.14
10060;BME280;5069;49.306;8.636;2023-06-14T02:07:04;99930.50;;;21.03;38.31
10060;BME280;5069;49.306;8.636;2023-06-14T02:10:06;99937.94;;;20.99;38.34
10060;BME280;5069;49.306;8.636;2023-06-14T02:13:07;99930.31;;;20.95;38.13
10060;BME280;5069;49.306;8.636;2023-06-14T02:16:09;99934.53;;;20.97;38.04
10060;BME280;5069;49.306;8.636;2023-06-14T02:19:12;99934.94;;;20.93;38.11
10060;BME280;5069;49.306;8.636;2023-06-14T02:22:13;99934.81;;;20.94;38.14
10060;BME280;5069;49.306;8.636;2023-06-14T02:25:16;99942.00;;;20.94;38.05
10060;BME280;5069;49.306;8.636;2023-06-14T02:28:18;99940.41;;;20.91;38.47
10060;BME280;5069;49.306;8.636;2023-06-14T02:31:19;99948.59;;;20.90;38.54
10060;BME280;5069;49.306;8.636;2023-06-14T02:34:23;99949.19;;;20.93;38.32
10060;BME280;5069;49.306;8.636;2023-06-14T02:37:24;99951.41;;;20.88;38.15
10060;BME280;5069;49.306;8.636;2023-06-14T02:40:27;99951.63;;;20.85;38.60
10060;BME280;5069;49.306;8.636;2023-06-14T02:43:31;99958.81;;;20.85;38.20
10060;BME280;5069;49.306;8.636;2023-06-14T02:46:32;99961.41;;;20.75;38.95
10060;BME280;5069;49.306;8.636;2023-06-14T02:49:34;99970.75;;;20.49;39.64
10060;BME280;5069;49.306;8.636;2023-06-14T02:52:36;99958.91;;;20.29;40.72
10060;BME280;5069;49.306;8.636;2023-06-14T02:55:38;99970.84;;;20.25;40.51
10060;BME280;5069;49.306;8.636;2023-06-14T02:58:41;99960.75;;;20.17;41.50
10060;BME280;5069;49.306;8.636;2023-06-14T03:01:43;99971.22;;;20.20;40.78
10060;BME280;5069;49.306;8.636;2023-06-14T03:04:47;99969.41;;;19.88;42.02
10060;BME280;5069;49.306;8.636;2023-06-14T03:07:51;99975.59;;;19.88;41.93
10060;BME280;5069;49.306;8.636;2023-06-14T03:10:55;99975.09;;;19.94;40.86
10060;BME280;5069;49.306;8.636;2023-06-14T03:13:58;99977.94;;;20.04;40.36
10060;BME280;5069;49.306;8.636;2023-06-14T03:17:02;99981.47;;;20.15;40.48
10060;BME280;5069;49.306;8.636;2023-06-14T03:20:05;99980.34;;;20.29;39.08
10060;BME280;5069;49.306;8.636;2023-06-14T03:23:07;99985.50;;;20.32;39.47
10060;BME280;5069;49.306;8.636;2023-06-14T03:26:08;99996.03;;;20.45;39.16
10060;BME280;5069;49.306;8.636;2023-06-14T03:29:10;99998.97;;;20.42;40.42
10060;BME280;5069;49.306;8.636;2023-06-14T03:32:12;99994.22;;;20.34;41.21
10060;BME280;5069;49.306;8.636;2023-06-14T03:35:16;99997.00;;;19.99;43.06
10060;BME280;5069;49.306;8.636;2023-06-14T03:38:21;100003.63;;;19.60;44.98
10060;BME280;5069;49.306;8.636;2023-06-14T03:41:24;100006.31;;;19.36;45.75
10060;BME280;5069;49.306;8.636;2023-06-14T03:44:28;100014.53;;;19.22;46.65
10060;BME280;5069;49.306;8.636;2023-06-14T03:47:29;100020.00;;;18.97;48.33
10060;BME280;5069;49.306;8.636;2023-06-14T03:50:31;100023.03;;;18.92;48.53
10060;BME280;5069;49.306;8.636;2023-06-14T03:53:33;100035.44;;;18.81;49.24
10060;BME280;5069;49.306;8.636;2023-06-14T03:56:45;100029.94;;;18.71;49.56
10060;BME280;5069;49.306;8.636;2023-06-14T03:59:48;100044.50;;;18.67;49.68
10060;BME280;5069;49.306;8.636;2023-06-14T04:02:49;100050.03;;;18.51;50.32
10060;BME280;5069;49.306;8.636;2023-06-14T04:05:52;100046.22;;;18.55;49.88
10060;BME280;5069;49.306;8.636;2023-06-14T04:08:59;100058.69;;;18.42;51.16
10060;BME280;5069;49.306;8.636;2023-06-14T04:12:05;100048.34;;;18.38;51.11
10060;BME280;5069;49.306;8.636;2023-06-14T04:15:07;100051.13;;;18.49;50.94
10060;BME280;5069;49.306;8.636;2023-06-14T04:18:24;100057.75;;;18.43;50.47
10060;BME280;5069;49.306;8.636;2023-06-14T04:21:25;100060.06;;;18.48;51.19
10060;BME280;5069;49.306;8.636;2023-06-14T04:24:31;100075.25;;;18.47;50.93
10060;BME280;5069;49.306;8.636;2023-06-14T04:27:37;100075.03;;;18.50;51.19
10060;BME280;5069;49.306;8.636;2023-06-14T04:30:40;100081.44;;;18.61;51.58
10060;BME280;5069;49.306;8.636;2023-06-14T04:33:42;100082.91;;;18.52;51.86
10060;BME280;5069;49.306;8.636;2023-06-14T04:36:51;100080.78;;;18.57;51.63
10060;BME280;5069;49.306;8.636;2023-06-14T04:40:02;100085.31;;;18.56;51.69
10060;BME280;5069;49.306;8.636;2023-06-14T04:43:06;100081.88;;;18.54;52.68
10060;BME280;5069;49.306;8.636;2023-06-14T04:46:08;100089.22;;;18.64;52.26
10060;BME280;5069;49.306;8.636;2023-06-14T04:49:13;100091.28;;;18.60;52.41
10060;BME280;5069;49.306;8.636;2023-06-14T04:52:16;100089.31;;;18.75;51.83
10060;BME280;5069;49.306;8.636;2023-06-14T04:55:19;100095.63;;;18.74;52.00
10060;BME280;5069;49.306;8.636;2023-06-14T04:58:21;100093.41;;;18.68;52.87
10060;BME280;5069;49.306;8.636;2023-06-14T05:01:22;100092.56;;;18.54;52.99
10060;BME280;5069;49.306;8.636;2023-06-14T05:04:27;100102.28;;;18.55;55.06
10060;BME280;5069;49.306;8.636;2023-06-14T05:07:30;100104.81;;;18.57;54.98
10060;BME280;5069;49.306;8.636;2023-06-14T05:10:32;100105.13;;;18.65;55.58
10060;BME280;5069;49.306;8.636;2023-06-14T05:13:36;100112.63;;;18.73;55.78
10060;BME280;5069;49.306;8.636;2023-06-14T05:16:37;100117.91;;;18.85;54.78
10060;BME280;5069;49.306;8.636;2023-06-14T05:19:40;100112.53;;;18.98;54.13
10060;BME280;5069;49.306;8.636;2023-06-14T05:22:42;100113.56;;;19.08;53.51
10060;BME280;5069;49.306;8.636;2023-06-14T05:25:44;100110.13;;;19.19;53.30
10060;BME280;5069;49.306;8.636;2023-06-14T05:28:46;100118.06;;;19.31;53.51
10060;BME280;5069;49.306;8.636;2023-06-14T05:31:47;100121.78;;;19.42;53.24
10060;BME280;5069;49.306;8.636;2023-06-14T05:34:49;100118.56;;;19.49;52.08
10060;BME280;5069;49.306;8.636;2023-06-14T05:37:51;100116.13;;;19.70;51.21
10060;BME280;5069;49.306;8.636;2023-06-14T05:40:52;100122.22;;;19.83;50.14
10060;BME280;5069;49.306;8.636;2023-06-14T05:43:56;100121.88;;;19.88;49.94
10060;BME280;5069;49.306;8.636;2023-06-14T05:46:57;100125.41;;;19.99;48.96
10060;BME280;5069;49.306;8.636;2023-06-14T05:49:59;100118.25;;;20.00;47.23
10060;BME280;5069;49.306;8.636;2023-06-14T05:53:00;100130.84;;;20.10;47.25
10060;BME280;5069;49.306;8.636;2023-06-14T05:56:02;100127.44;;;20.19;46.93
10060;BME280;5069;49.306;8.636;2023-06-14T05:59:03;100131.75;;;20.33;45.69
10060;BME280;5069;49.306;8.636;2023-06-14T06:02:05;100139.78;;;20.44;45.36
10060;BME280;5069;49.306;8.636;2023-06-14T06:05:07;100136.00;;;20.47;45.13
10060;BME280;5069;49.306;8.636;2023-06-14T06:08:08;100137.94;;;20.45;45.21
10060;BME280;5069;49.306;8.636;2023-06-14T06:11:10;100143.34;;;20.56;44.79
10060;BME280;5069;49.306;8.636;2023-06-14T06:14:12;100144.06;;;20.69;44.68
10060;BME280;5069;49.306;8.636;2023-06-14T06:17:13;100149.88;;;20.85;44.53
10060;BME280;5069;49.306;8.636;2023-06-14T06:20:15;100145.03;;;21.01;44.11
10060;BME280;5069;49.306;8.636;2023-06-14T06:23:17;100141.84;;;20.96;44.17
10060;BME280;5069;49.306;8.636;2023-06-14T06:26:18;100137.19;;;21.10;43.97
10060;BME280;5069;49.306;8.636;2023-06-14T06:29:20;100148.44;;;21.15;43.50
10060;BME280;5069;49.306;8.636;2023-06-14T06:32:21;100157.41;;;21.25;43.72
10060;BME280;5069;49.306;8.636;2023-06-14T06:35:23;100151.06;;;21.37;43.13
10060;BME280;5069;49.306;8.636;2023-06-14T06:38:25;100156.00;;;20.87;43.37
10060;BME280;5069;49.306;8.636;2023-06-14T06:41:26;100164.13;;;20.86;43.53
10060;BME280;5069;49.306;8.636;2023-06-14T06:44:28;100159.50;;;21.10;43.82
10060;BME280;5069;49.306;8.636;2023-06-14T06:47:30;100158.88;;;21.40;42.96
10060;BME280;5069;49.306;8.636;2023-06-14T06:50:31;100163.88;;;21.65;42.87
10060;BME280;5069;49.306;8.636;2023-06-14T06:53:33;100165.22;;;21.71;41.88
10060;BME280;5069;49.306;8.636;2023-06-14T06:56:43;100161.63;;;21.50;41.59
10060;BME280;5069;49.306;8.636;2023-06-14T06:59:44;100164.91;;;21.64;42.01
10060;BME280;5069;49.306;8.636;2023-06-14T07:02:46;100167.72;;;21.83;41.30
10060;BME280;5069;49.306;8.636;2023-06-14T07:05:48;100177.94;;;21.90;40.90
10060;BME280;5069;49.306;8.636;2023-06-14T07:08:49;100174.41;;;21.57;41.49
10060;BME280;5069;49.306;8.636;2023-06-14T07:11:51;100185.88;;;21.48;42.05
10060;BME280;5069;49.306;8.636;2023-06-14T07:14:53;100174.34;;;21.79;41.52
10060;BME280;5069;49.306;8.636;2023-06-14T07:17:55;100178.44;;;21.95;41.61
10060;BME280;5069;49.306;8.636;2023-06-14T07:21:01;100175.06;;;22.34;40.76
10060;BME280;5069;49.306;8.636;2023-06-14T07:24:05;100181.75;;;22.19;39.96
10060;BME280;5069;49.306;8.636;2023-06-14T07:27:07;100189.41;;;22.03;40.15
10060;BME280;5069;49.306;8.636;2023-06-14T07:30:09;100186.31;;;21.75;40.83
10060;BME280;5069;49.306;8.636;2023-06-14T07:33:11;100186.34;;;21.64;40.94
10060;BME280;5069;49.306;8.636;2023-06-14T07:36:13;100197.59;;;21.90;41.44
10060;BME280;5069;49.306;8.636;2023-06-14T07:39:15;100186.84;;;22.22;40.90
10060;BME280;5069;49.306;8.636;2023-06-14T07:42:17;100191.44;;;22.31;39.99
10060;BME280;5069;49.306;8.636;2023-06-14T07:45:18;100189.38;;;22.44;39.46
10060;BME280;5069;49.306;8.636;2023-06-14T07:48:21;100201.91;;;22.34;40.49
10060;BME280;5069;49.306;8.636;2023-06-14T07:51:22;100191.03;;;22.56;39.73
10060;BME280;5069;49.306;8.636;2023-06-14T07:54:24;100198.75;;;22.71;39.87
10060;BME280;5069;49.306;8.636;2023-06-14T07:57:27;100195.34;;;22.89;38.80
10060;BME280;5069;49.306;8.636;2023-06-14T08:00:29;100196.06;;;22.71;38.97
10060;BME280;5069;49.306;8.636;2023-06-14T08:03:32;100196.94;;;23.01;38.63
10060;BME280;5069;49.306;8.636;2023-06-14T08:06:33;100196.34;;;22.98;38.94
10060;BME280;5069;49.306;8.636;2023-06-14T08:09:35;100196.78;;;23.33;38.67
10060;BME280;5069;49.306;8.636;2023-06-14T08:12:39;100200.66;;;23.60;38.09
10060;BME280;5069;49.306;8.636;2023-06-14T08:15:40;100191.22;;;23.75;37.96
10060;BME280;5069;49.306;8.636;2023-06-14T08:18:42;100201.81;;;23.67;38.33
10060;BME280;5069;49.306;8.636;2023-06-14T08:21:43;100192.63;;;23.98;38.04
10060;BME280;5069;49.306;8.636;2023-06-14T08:24:45;100196.59;;;24.13;36.54
10060;BME280;5069;49.306;8.636;2023-06-14T08:27:46;100198.59;;;24.21;36.51
10060;BME280;5069;49.306;8.636;2023-06-14T08:30:48;100191.47;;;24.39;36.61
10060;BME280;5069;49.306;8.636;2023-06-14T08:33:49;100185.50;;;24.45;36.12
10060;BME280;5069;49.306;8.636;2023-06-14T08:36:51;100192.06;;;24.43;36.42
10060;BME280;5069;49.306;8.636;2023-06-14T08:39:52;100199.28;;;24.33;36.99
10060;BME280;5069;49.306;8.636;2023-06-14T08:42:54;100190.63;;;24.39;36.37
10060;BME280;5069;49.306;8.636;2023-06-14T08:46:02;100188.19;;;24.55;36.25
10060;BME280;5069;49.306;8.636;2023-06-14T08:49:04;100191.50;;;24.29;36.51
10060;BME280;5069;49.306;8.636;2023-06-14T08:52:09;100190.91;;;24.45;36.12
10060;BME280;5069;49.306;8.636;2023-06-14T08:55:12;100186.84;;;24.78;35.85
10060;BME280;5069;49.306;8.636;2023-06-14T08:58:14;100199.97;;;25.00;35.48
10060;BME280;5069;49.306;8.636;2023-06-14T09:01:16;100197.34;;;24.81;35.46
10060;BME280;5069;49.306;8.636;2023-06-14T09:04:19;100193.91;;;24.98;35.08
10060;BME280;5069;49.306;8.636;2023-06-14T09:07:20;100194.31;;;25.03;34.98
10060;BME280;5069;49.306;8.636;2023-06-14T09:10:23;100192.31;;;25.33;35.14
10060;BME280;5069;49.306;8.636;2023-06-14T09:13:27;100189.75;;;25.04;34.22
10060;BME280;5069;49.306;8.636;2023-06-14T09:16:32;100202.44;;;24.38;36.63
10060;BME280;5069;49.306;8.636;2023-06-14T09:19:34;100195.03;;;24.96;36.31
10060;BME280;5069;49.306;8.636;2023-06-14T09:22:37;100195.53;;;25.36;35.69
10060;BME280;5069;49.306;8.636;2023-06-14T09:25:43;100201.09;;;25.35;34.20
10060;BME280;5069;49.306;8.636;2023-06-14T09:28:48;100199.44;;;25.24;35.13
10060;BME280;5069;49.306;8.636;2023-06-14T09:31:50;100192.72;;;25.10;35.41
10060;BME280;5069;49.306;8.636;2023-06-14T09:34:52;100194.44;;;25.02;35.22
10060;BME280;5069;49.306;8.636;2023-06-14T09:37:55;100199.16;;;24.90;35.79
10060;BME280;5069;49.306;8.636;2023-06-14T09:40:58;100194.81;;;24.70;34.99
10060;BME280;5069;49.306;8.636;2023-06-14T09:44:01;100193.09;;;24.88;34.86
10060;BME280;5069;49.306;8.636;2023-06-14T09:47:07;100185.91;;;25.06;34.52
10060;BME280;5069;49.306;8.636;2023-06-14T09:50:09;100202.53;;;25.29;34.10
10060;BME280;5069;49.306;8.636;2023-06-14T09:53:11;100191.31;;;25.34;33.95
10060;BME280;5069;49.306;8.636;2023-06-14T09:56:19;100199.72;;;25.76;33.53
10060;BME280;5069;49.306;8.636;2023-06-14T09:59:26;100203.75;;;25.72;33.09
10060;BME280;5069;49.306;8.636;2023-06-14T10:02:35;100195.75;;;25.80;32.96
10060;BME280;5069;49.306;8.636;2023-06-14T10:05:42;100200.47;;;26.21;32.72
10060;BME280;5069;49.306;8.636;2023-06-14T10:08:45;100196.31;;;26.09;31.90
10060;BME280;5069;49.306;8.636;2023-06-14T10:11:47;100190.09;;;25.73;32.98
10060;BME280;5069;49.306;8.636;2023-06-14T10:14:50;100188.78;;;25.77;33.50
10060;BME280;5069;49.306;8.636;2023-06-14T10:18:05;100188.47;;;25.53;32.80
10060;BME280;5069;49.306;8.636;2023-06-14T10:21:28;100188.03;;;25.40;32.85
10060;BME280;5069;49.306;8.636;2023-06-14T10:24:38;100192.06;;;25.26;32.21
10060;BME280;5069;49.306;8.636;2023-06-14T10:27:44;100200.69;;;25.30;32.78
10060;BME280;5069;49.306;8.636;2023-06-14T10:34:07;100191.72;;;25.12;32.15
10060;BME280;5069;49.306;8.636;2023-06-14T10:37:13;100198.31;;;25.27;32.68
10060;BME280;5069;49.306;8.636;2023-06-14T10:40:30;100195.41;;;25.38;32.23
10060;BME280;5069;49.306;8.636;2023-06-14T10:43:32;100186.59;;;25.36;32.18
10060;BME280;5069;49.306;8.636;2023-06-14T10:46:33;100197.78;;;25.41;31.37
10060;BME280;5069;49.306;8.636;2023-06-14T10:49:43;100179.63;;;25.16;32.18
10060;BME280;5069;49.306;8.636;2023-06-14T10:52:45;100187.50;;;25.27;31.55
10060;BME280;5069;49.306;8.636;2023-06-14T10:55:47;100178.81;;;25.60;31.74
10060;BME280;5069;49.306;8.636;2023-06-14T10:58:49;100177.59;;;26.08;31.63
10060;BME280;5069;49.306;8.636;2023-06-14T11:02:33;100170.25;;;25.82;31.50
10060;BME280;5069;49.306;8.636;2023-06-14T11:05:53;100172.09;;;26.35;31.11
10060;BME280;5069;49.306;8.636;2023-06-14T11:12:25;100187.56;;;25.44;31.21
10060;BME280;5069;49.306;8.636;2023-06-14T11:15:33;100183.31;;;25.15;31.81
10060;BME280;5069;49.306;8.636;2023-06-14T11:18:36;100183.91;;;25.08;31.76
10060;BME280;5069;49.306;8.636;2023-06-14T11:21:40;100189.25;;;25.45;30.84
10060;BME280;5069;49.306;8.636;2023-06-14T11:24:42;100183.75;;;25.65;30.63
10060;BME280;5069;49.306;8.636;2023-06-14T11:27:44;100187.34;;;25.56;30.47
10060;BME280;5069;49.306;8.636;2023-06-14T11:30:47;100174.63;;;25.21;30.76
10060;BME280;5069;49.306;8.636;2023-06-14T11:33:59;100183.00;;;25.72;30.78
10060;BME280;5069;49.306;8.636;2023-06-14T11:37:01;100191.53;;;26.21;30.27
10060;BME280;5069;49.306;8.636;2023-06-14T11:40:04;100184.53;;;25.92;30.45
10060;BME280;5069;49.306;8.636;2023-06-14T11:43:12;100191.09;;;26.08;30.43
10060;BME280;5069;49.306;8.636;2023-06-14T11:46:15;100178.13;;;26.11;30.75
10060;BME280;5069;49.306;8.636;2023-06-14T11:49:18;100181.69;;;26.29;30.47
10060;BME280;5069;49.306;8.636;2023-06-14T11:52:19;100179.47;;;26.51;30.61
10060;BME280;5069;49.306;8.636;2023-06-14T11:55:21;100179.47;;;26.77;29.90
10060;BME280;5069;49.306;8.636;2023-06-14T11:58:23;100177.97;;;26.82;29.95
10060;BME280;5069;49.306;8.636;2023-06-14T12:01:25;100177.94;;;27.08;29.61
10060;BME280;5069;49.306;8.636;2023-06-14T12:04:27;100183.38;;;27.08;29.37
10060;BME280;5069;49.306;8.636;2023-06-14T12:07:30;100181.53;;;26.57;29.72
10060;BME280;5069;49.306;8.636;2023-06-14T12:10:40;100179.50;;;26.33;30.31
10060;BME280;5069;49.306;8.636;2023-06-14T12:13:45;100174.28;;;26.57;30.75
10060;BME280;5069;49.306;8.636;2023-06-14T12:16:46;100176.00;;;26.66;29.88
10060;BME280;5069;49.306;8.636;2023-06-14T12:19:49;100167.78;;;26.50;30.12
10060;BME280;5069;49.306;8.636;2023-06-14T12:22:55;100169.91;;;26.39;30.30
10060;BME280;5069;49.306;8.636;2023-06-14T12:25:59;100173.66;;;26.02;30.62
10060;BME280;5069;49.306;8.636;2023-06-14T12:29:05;100174.56;;;26.11;30.49
10060;BME280;5069;49.306;8.636;2023-06-14T12:32:07;100178.50;;;26.16;30.51
10060;BME280;5069;49.306;8.636;2023-06-14T12:35:08;100174.31;;;26.22;30.13
10060;BME280;5069;49.306;8.636;2023-06-14T12:38:10;100168.75;;;26.41;29.16
10060;BME280;5069;49.306;8.636;2023-06-14T12:41:12;100168.44;;;26.70;28.94
10060;BME280;5069;49.306;8.636;2023-06-14T12:44:15;100169.94;;;26.64;28.83
10060;BME280;5069;49.306;8.636;2023-06-14T12:47:17;100169.59;;;26.67;29.25
10060;BME280;5069;49.306;8.636;2023-06-14T12:50:19;100169.44;;;26.95;29.27
10060;BME280;5069;49.306;8.636;2023-06-14T12:53:23;100170.19;;;27.13;28.86
10060;BME280;5069;49.306;8.636;2023-06-14T12:56:25;100179.88;;;27.24;29.36
10060;BME280;5069;49.306;8.636;2023-06-14T12:59:27;100178.84;;;27.17;28.92
10060;BME280;5069;49.306;8.636;2023-06-14T13:02:34;100181.56;;;27.17;29.20
10060;BME280;5069;49.306;8.636;2023-06-14T13:05:36;100186.56;;;27.03;28.86
10060;BME280;5069;49.306;8.636;2023-06-14T13:08:38;100186.19;;;26.72;28.85
10060;BME280;5069;49.306;8.636;2023-06-14T13:11:40;100189.44;;;26.76;29.42
10060;BME280;5069;49.306;8.636;2023-06-14T13:14:41;100186.00;;;27.00;28.79
10060;BME280;5069;49.306;8.636;2023-06-14T13:17:43;100185.91;;;27.51;28.63
10060;BME280;5069;49.306;8.636;2023-06-14T13:20:49;100186.97;;;27.67;27.61
10060;BME280;5069;49.306;8.636;2023-06-14T13:23:51;100189.25;;;27.45;28.50
10060;BME280;5069;49.306;8.636;2023-06-14T13:26:53;100176.88;;;28.01;28.05
10060;BME280;5069;49.306;8.636;2023-06-14T13:29:55;100183.78;;;27.79;28.12
10060;BME280;5069;49.306;8.636;2023-06-14T13:32:57;100181.91;;;27.30;28.08
10060;BME280;5069;49.306;8.636;2023-06-14T13:35:58;100184.56;;;27.05;28.06
10060;BME280;5069;49.306;8.636;2023-06-14T13:39:00;100200.13;;;26.86;28.72
10060;BME280;5069;49.306;8.636;2023-06-14T13:42:02;100180.13;;;26.79;29.10
10060;BME280;5069;49.306;8.636;2023-06-14T13:45:04;100185.03;;;26.75;29.58
10060;BME280;5069;49.306;8.636;2023-06-14T13:48:06;100179.78;;;27.49;28.98
10060;BME280;5069;49.306;8.636;2023-06-14T13:51:08;100185.25;;;27.58;29.10
10060;BME280;5069;49.306;8.636;2023-06-14T13:54:12;100179.72;;;28.00;28.41
10060;BME280;5069;49.306;8.636;2023-06-14T13:57:13;100183.31;;;28.32;27.68
10060;BME280;5069;49.306;8.636;2023-06-14T14:00:15;100185.53;;;28.13;27.40
10060;BME280;5069;49.306;8.636;2023-06-14T14:03:20;100184.97;;;27.77;27.47
10060;BME280;5069;49.306;8.636;2023-06-14T14:06:21;100192.94;;;27.28;28.51
10060;BME280;5069;49.306;8.636;2023-06-14T14:09:23;100179.13;;;26.80;29.61
10060;BME280;5069;49.306;8.636;2023-06-14T14:12:25;100183.38;;;26.56;30.17
10060;BME280;5069;49.306;8.636;2023-06-14T14:15:26;100182.09;;;26.68;29.67
10060;BME280;5069;49.306;8.636;2023-06-14T14:18:28;100175.63;;;26.61;28.96
10060;BME280;5069;49.306;8.636;2023-06-14T14:21:33;100177.44;;;26.79;29.81
10060;BME280;5069;49.306;8.636;2023-06-14T14:24:34;100178.72;;;26.66;30.25
10060;BME280;5069;49.306;8.636;2023-06-14T14:27:36;100169.53;;;26.85;30.10
10060;BME280;5069;49.306;8.636;2023-06-14T14:30:38;100178.16;;;27.23;28.90
10060;BME280;5069;49.306;8.636;2023-06-14T14:33:41;100173.75;;;27.64;27.49
10060;BME280;5069;49.306;8.636;2023-06-14T14:36:42;100180.56;;;27.84;26.77
10060;BME280;5069;49.306;8.636;2023-06-14T14:39:45;100180.06;;;27.72;27.51
10060;BME280;5069;49.306;8.636;2023-06-14T14:42:47;100182.75;;;27.72;27.75
10060;BME280;5069;49.306;8.636;2023-06-14T14:45:48;100184.94;;;27.61;27.88
10060;BME280;5069;49.306;8.636;2023-06-14T14:48:50;100186.09;;;27.58;28.03
10060;BME280;5069;49.306;8.636;2023-06-14T14:51:51;100185.59;;;27.63;28.24
10060;BME280;5069;49.306;8.636;2023-06-14T14:54:53;100182.09;;;27.86;27.86
10060;BME280;5069;49.306;8.636;2023-06-14T14:57:55;100188.00;;;27.74;28.78
10060;BME280;5069;49.306;8.636;2023-06-14T15:00:56;100175.81;;;27.78;28.35
10060;BME280;5069;49.306;8.636;2023-06-14T15:03:58;100179.56;;;27.85;28.39
10060;BME280;5069;49.306;8.636;2023-06-14T15:07:00;100182.47;;;28.40;27.79
10060;BME280;5069;49.306;8.636;2023-06-14T15:10:02;100178.19;;;28.78;27.73
10060;BME280;5069;49.306;8.636;2023-06-14T15:13:04;100178.56;;;28.51;26.65
10060;BME280;5069;49.306;8.636;2023-06-14T15:16:05;100176.53;;;28.20;27.52
10060;BME280;5069;49.306;8.636;2023-06-14T15:19:07;100187.56;;;28.19;28.01
10060;BME280;5069;49.306;8.636;2023-06-14T15:22:08;100190.44;;;28.25;28.02
10060;BME280;5069;49.306;8.636;2023-06-14T15:25:10;100196.81;;;27.68;28.85
10060;BME280;5069;49.306;8.636;2023-06-14T15:28:11;100189.50;;;27.68;28.90
10060;BME280;5069;49.306;8.636;2023-06-14T15:31:13;100194.50;;;27.39;28.88
10060;BME280;5069;49.306;8.636;2023-06-14T15:34:14;100186.06;;;27.08;29.53
10060;BME280;5069;49.306;8.636;2023-06-14T15:37:16;100181.97;;;26.78;30.00
10060;BME280;5069;49.306;8.636;2023-06-14T15:40:18;100177.97;;;26.56;30.41
10060;BME280;5069;49.306;8.636;2023-06-14T15:43:19;100176.25;;;26.47;30.61
10060;BME280;5069;49.306;8.636;2023-06-14T15:46:21;100174.16;;;26.41;30.37
10060;BME280;5069;49.306;8.636;2023-06-14T15:49:24;100177.91;;;27.00;30.09
10060;BME280;5069;49.306;8.636;2023-06-14T15:52:25;100169.53;;;27.19;29.76
10060;BME280;5069;49.306;8.636;2023-06-14T15:55:27;100172.28;;;27.27;30.05
10060;BME280;5069;49.306;8.636;2023-06-14T15:58:28;100164.88;;;27.37;30.12
10060;BME280;5069;49.306;8.636;2023-06-14T16:01:29;100157.50;;;27.56;29.88
10060;BME280;5069;49.306;8.636;2023-06-14T16:04:31;100165.94;;;27.52;29.61
10060;BME280;5069;49.306;8.636;2023-06-14T16:07:33;100162.13;;;28.20;28.93
10060;BME280;5069;49.306;8.636;2023-06-14T16:10:35;100152.72;;;28.71;28.38
10060;BME280;5069;49.306;8.636;2023-06-14T16:13:41;100151.69;;;28.88;27.64
10060;BME280;5069;49.306;8.636;2023-06-14T16:16:43;100155.66;;;28.61;27.77
10060;BME280;5069;49.306;8.636;2023-06-14T16:19:45;100165.00;;;28.02;27.93